createdAt,value
2019-03-28T00:01:17.228Z,0.86
2019-03-28T00:03:45.677Z,0.81
2019-03-28T00:06:14.168Z,0.81
2019-03-28T00:08:42.622Z,0.71
2019-03-28T00:11:11.035Z,0.86
2019-03-28T00:13:39.500Z,0.62
2019-03-28T00:16:07.968Z,0.87
2019-03-28T00:18:36.422Z,0.62
2019-03-28T00:21:04.909Z,0.72
2019-03-28T00:23:35.158Z,0.72
2019-03-28T00:26:03.740Z,0.69
2019-03-28T00:28:32.161Z,0.66
2019-03-28T00:31:00.688Z,0.60
2019-03-28T00:33:29.111Z,0.59
2019-03-28T00:35:57.553Z,0.50
2019-03-28T00:38:26.045Z,0.51
2019-03-28T00:40:55.185Z,0.59
2019-03-28T00:43:23.781Z,0.58
2019-03-28T00:45:52.208Z,0.67
2019-03-28T00:48:20.668Z,0.45
2019-03-28T00:50:49.255Z,0.45
2019-03-28T00:53:17.728Z,0.62
2019-03-28T00:55:46.159Z,0.59
2019-03-28T00:58:14.602Z,0.74
2019-03-28T01:00:43.174Z,0.61
2019-03-28T01:03:11.595Z,0.61
2019-03-28T01:05:40.143Z,0.62
2019-03-28T01:08:08.605Z,0.61
2019-03-28T01:10:37.172Z,0.56
2019-03-28T01:13:05.610Z,0.54
2019-03-28T01:15:34.109Z,0.45
2019-03-28T01:18:02.571Z,0.37
2019-03-28T01:20:30.996Z,0.22
2019-03-28T01:22:59.460Z,0.33
2019-03-28T01:25:27.879Z,0.34
2019-03-28T01:27:56.313Z,0.43
2019-03-28T01:30:24.774Z,0.33
2019-03-28T01:32:53.480Z,0.47
2019-03-28T01:35:21.911Z,0.40
2019-03-28T01:37:50.322Z,0.37
2019-03-28T01:40:18.799Z,0.56
2019-03-28T01:42:47.302Z,0.47
2019-03-28T01:45:15.782Z,0.39
2019-03-28T01:47:44.375Z,0.37
2019-03-28T01:50:12.935Z,0.36
2019-03-28T01:52:41.453Z,0.32
2019-03-28T01:55:09.952Z,0.32
2019-03-28T01:57:39.347Z,0.36
2019-03-28T02:00:10.757Z,0.31
2019-03-28T02:02:39.206Z,0.22
2019-03-28T02:05:08.696Z,0.09
2019-03-28T02:07:37.117Z,0.09
2019-03-28T02:10:07.295Z,0.20
2019-03-28T02:12:35.808Z,0.15
2019-03-28T02:15:08.409Z,0.14
2019-03-28T02:17:38.087Z,0.09
2019-03-28T02:20:10.721Z,-0.13
2019-03-28T02:22:39.176Z,0.29
2019-03-28T02:25:08.267Z,0.03
2019-03-28T02:27:36.680Z,0.03
2019-03-28T02:30:08.734Z,0.22
2019-03-28T02:32:37.151Z,0.19
2019-03-28T02:35:06.446Z,0.15
2019-03-28T02:37:35.255Z,0.18
2019-03-28T02:40:04.818Z,0.09
2019-03-28T02:42:33.233Z,-0.02
2019-03-28T02:45:01.683Z,0.09
2019-03-28T02:47:30.130Z,-0.05
2019-03-28T02:49:58.587Z,0.03
2019-03-28T02:52:27.008Z,-0.18
2019-03-28T02:54:55.427Z,-0.18
2019-03-28T02:57:39.607Z,-0.14
2019-03-28T02:59:54.732Z,-0.07
2019-03-28T03:02:23.423Z,-0.12
2019-03-28T03:04:52.012Z,-0.13
2019-03-28T03:07:20.485Z,0.08
2019-03-28T03:09:48.908Z,-0.17
2019-03-28T03:12:17.329Z,-0.27
2019-03-28T03:14:45.811Z,-0.38
2019-03-28T03:17:14.418Z,-0.50
2019-03-28T03:19:44.172Z,-0.45
2019-03-28T03:22:12.658Z,-0.42
2019-03-28T03:24:41.085Z,-0.45
2019-03-28T03:27:09.537Z,-0.50
2019-03-28T03:29:37.976Z,-0.59
2019-03-28T03:32:06.417Z,-0.67
2019-03-28T03:34:34.854Z,-0.69
2019-03-28T03:37:03.949Z,-0.69
2019-03-28T03:39:32.634Z,-0.63
2019-03-28T03:42:01.091Z,-0.62
2019-03-28T03:44:29.502Z,-0.65
2019-03-28T03:46:57.958Z,-0.64
2019-03-28T03:49:26.467Z,-0.84
2019-03-28T03:51:54.945Z,-0.84
2019-03-28T03:54:23.362Z,-0.59
2019-03-28T03:56:51.837Z,-0.75
2019-03-28T03:59:20.271Z,-0.85
2019-03-28T04:01:48.681Z,-0.75
2019-03-28T04:04:17.201Z,-0.67
2019-03-28T04:06:45.807Z,-0.59
2019-03-28T04:09:14.242Z,-0.73
2019-03-28T04:11:42.664Z,-0.74
2019-03-28T04:14:11.113Z,-0.80
2019-03-28T04:16:39.525Z,-0.81
2019-03-28T04:19:07.979Z,-0.85
2019-03-28T04:21:37.098Z,-0.91
2019-03-28T04:24:05.543Z,-0.91
2019-03-28T04:26:33.969Z,-0.90
2019-03-28T04:29:02.395Z,-0.82
2019-03-28T04:31:30.846Z,-1.00
2019-03-28T04:34:06.606Z,-1.07
2019-03-28T04:36:29.915Z,-1.06
2019-03-28T04:38:58.355Z,-1.05
2019-03-28T04:41:26.782Z,-1.05
2019-03-28T04:43:56.080Z,-1.12
2019-03-28T04:46:24.657Z,-1.22
2019-03-28T04:48:53.106Z,-1.11
2019-03-28T04:51:21.524Z,-1.31
2019-03-28T04:53:49.973Z,-1.42
2019-03-28T04:56:18.390Z,-1.33
2019-03-28T04:58:46.813Z,-1.14
2019-03-28T05:01:15.376Z,-1.25
2019-03-28T05:03:43.806Z,-1.31
2019-03-28T05:06:12.289Z,-1.39
2019-03-28T05:08:40.746Z,-1.24
2019-03-28T05:11:09.195Z,-1.16
2019-03-28T05:13:37.620Z,-1.18
2019-03-28T05:16:06.057Z,-1.14
2019-03-28T05:18:34.580Z,-1.08
2019-03-28T05:21:03.029Z,-1.14
2019-03-28T05:23:31.526Z,-1.10
2019-03-28T05:25:59.992Z,-1.13
2019-03-28T05:28:28.416Z,-1.15
2019-03-28T05:30:56.854Z,-0.81
2019-03-28T05:33:25.425Z,-0.89
2019-03-28T05:35:53.901Z,-1.18
2019-03-28T05:38:22.325Z,-1.00
2019-03-28T05:40:50.845Z,-0.84
2019-03-28T05:43:19.305Z,-0.98
2019-03-28T05:45:47.834Z,-0.99
2019-03-28T05:48:16.293Z,-0.77
2019-03-28T05:50:44.723Z,-0.43
2019-03-28T05:53:13.185Z,0.11
2019-03-28T05:55:41.601Z,0.21
2019-03-28T05:58:10.030Z,0.39
2019-03-28T06:00:39.087Z,0.67
2019-03-28T06:03:08.788Z,1.00
2019-03-28T06:05:37.207Z,1.15
2019-03-28T06:08:05.705Z,1.26
2019-03-28T06:10:34.146Z,1.63
2019-03-28T06:13:02.634Z,2.01
2019-03-28T06:15:31.198Z,2.33
2019-03-28T06:17:59.688Z,2.58
2019-03-28T06:20:28.231Z,2.73
2019-03-28T06:22:56.631Z,3.00
2019-03-28T06:25:25.082Z,3.26
2019-03-28T06:27:53.519Z,3.26
2019-03-28T06:30:22.110Z,3.53
2019-03-28T06:32:50.530Z,3.54
2019-03-28T06:35:21.843Z,3.50
2019-03-28T06:37:51.501Z,3.97
2019-03-28T06:40:19.304Z,4.29
2019-03-28T06:42:47.742Z,4.39
2019-03-28T06:45:16.248Z,4.44
2019-03-28T06:47:44.669Z,4.55
2019-03-28T06:50:13.254Z,4.66
2019-03-28T06:52:41.719Z,5.07
2019-03-28T06:55:10.483Z,5.30
2019-03-28T06:57:38.901Z,5.23
2019-03-28T07:00:09.536Z,5.48
2019-03-28T07:02:38.681Z,5.91
2019-03-28T07:05:11.415Z,5.93
2019-03-28T07:07:39.989Z,6.13
2019-03-28T07:10:10.554Z,6.60
2019-03-28T07:12:39.491Z,6.91
2019-03-28T07:15:09.012Z,6.99
2019-03-28T07:17:37.459Z,7.10
2019-03-28T07:20:09.089Z,7.21
2019-03-28T07:22:36.867Z,7.61
2019-03-28T07:25:06.802Z,8.22
2019-03-28T07:27:35.993Z,8.40
2019-03-28T07:30:10.477Z,8.48
2019-03-28T07:32:38.944Z,9.01
2019-03-28T07:35:07.710Z,9.66
2019-03-28T07:37:36.227Z,9.76
2019-03-28T07:40:06.693Z,10.07
2019-03-28T07:42:35.310Z,10.27
2019-03-28T07:45:07.546Z,10.82
2019-03-28T07:47:35.993Z,10.80
2019-03-28T07:50:09.206Z,11.26
2019-03-28T07:52:37.700Z,11.27
2019-03-28T07:55:07.561Z,11.13
2019-03-28T07:57:36.018Z,12.19
2019-03-28T08:00:07.085Z,12.38
2019-03-28T08:02:35.766Z,12.53
2019-03-28T08:05:06.114Z,12.12
2019-03-28T08:07:44.246Z,12.72
2019-03-28T08:10:06.651Z,12.59
2019-03-28T08:12:35.194Z,12.96
2019-03-28T08:15:06.759Z,12.69
2019-03-28T08:17:35.186Z,13.21
2019-03-28T08:20:09.033Z,12.66
2019-03-28T08:22:37.538Z,13.46
2019-03-28T08:25:11.675Z,13.75
2019-03-28T08:27:38.843Z,13.76
2019-03-28T08:30:18.262Z,14.79
2019-03-28T08:32:40.258Z,15.14
2019-03-28T08:35:10.402Z,14.57
2019-03-28T08:37:39.130Z,15.29
2019-03-28T08:40:09.120Z,15.31
2019-03-28T08:42:37.570Z,15.76
2019-03-28T08:45:07.890Z,16.61
2019-03-28T08:47:36.528Z,16.38
2019-03-28T08:50:07.144Z,14.79
2019-03-28T08:52:35.717Z,15.77
2019-03-28T08:55:09.835Z,16.10
2019-03-28T08:57:36.807Z,17.05
2019-03-28T09:00:08.275Z,16.33
2019-03-28T09:02:36.773Z,16.32
2019-03-28T09:05:06.321Z,17.37
2019-03-28T09:07:34.787Z,17.66
2019-03-28T09:10:04.840Z,18.55
2019-03-28T09:12:35.292Z,17.93
2019-03-28T09:15:06.191Z,18.13
2019-03-28T09:17:34.708Z,18.87
2019-03-28T09:20:04.468Z,17.87
2019-03-28T09:22:33.175Z,18.66
2019-03-28T09:25:01.657Z,18.17
2019-03-28T09:27:30.089Z,19.07
2019-03-28T09:29:58.541Z,19.01
2019-03-28T09:32:27.730Z,18.90
2019-03-28T09:34:56.516Z,18.86
2019-03-28T09:37:24.989Z,19.87
2019-03-28T09:39:53.407Z,20.65
2019-03-28T09:42:21.831Z,20.42
2019-03-28T09:44:50.359Z,20.84
2019-03-28T09:47:18.844Z,20.81
2019-03-28T09:49:47.289Z,21.09
2019-03-28T09:52:15.780Z,20.18
2019-03-28T09:54:44.206Z,20.08
2019-03-28T09:57:12.621Z,20.05
2019-03-28T09:59:41.138Z,20.22
2019-03-28T10:02:09.625Z,20.47
2019-03-28T10:04:38.132Z,21.02
2019-03-28T10:07:06.547Z,18.81
2019-03-28T10:09:35.513Z,19.44
2019-03-28T10:12:04.180Z,19.00
2019-03-28T10:14:32.639Z,19.26
2019-03-28T10:17:01.495Z,19.23
2019-03-28T10:19:30.276Z,19.33
2019-03-28T10:21:58.731Z,20.33
2019-03-28T10:24:27.187Z,18.53
2019-03-28T10:26:55.671Z,20.42
2019-03-28T10:29:24.234Z,17.82
2019-03-28T10:31:52.791Z,14.31
2019-03-28T10:34:21.345Z,17.18
2019-03-28T10:36:49.811Z,17.51
2019-03-28T10:39:18.256Z,17.00
2019-03-28T10:41:46.809Z,15.16
2019-03-28T10:44:15.300Z,15.57
2019-03-28T10:46:43.766Z,16.96
2019-03-28T10:49:12.198Z,16.30
2019-03-28T10:51:40.931Z,15.87
2019-03-28T10:54:20.151Z,15.47
2019-03-28T10:56:51.209Z,15.26
2019-03-28T10:59:22.708Z,14.90
2019-03-28T11:01:49.770Z,16.62
2019-03-28T11:04:10.120Z,16.00
2019-03-28T11:06:38.564Z,15.64
2019-03-28T11:09:08.832Z,13.69
2019-03-28T11:11:37.398Z,13.33
2019-03-28T11:14:05.879Z,13.44
2019-03-28T11:16:34.373Z,14.92
2019-03-28T11:19:02.821Z,13.34
2019-03-28T11:21:34.219Z,13.79
2019-03-28T11:24:01.440Z,14.09
2019-03-28T11:26:29.900Z,13.33
2019-03-28T11:29:00.969Z,12.95
2019-03-28T11:31:28.478Z,12.77
2019-03-28T11:33:56.943Z,13.06
2019-03-28T11:36:25.757Z,13.38
2019-03-28T11:38:54.940Z,12.82
2019-03-28T11:41:23.564Z,13.47
2019-03-28T11:43:52.016Z,13.78
2019-03-28T11:46:20.435Z,13.70
2019-03-28T11:48:48.872Z,12.56
2019-03-28T11:51:17.331Z,12.31
2019-03-28T11:53:45.747Z,13.18
2019-03-28T11:56:14.226Z,13.58
2019-03-28T11:58:42.777Z,13.26
2019-03-28T12:01:11.269Z,13.09
2019-03-28T12:03:39.701Z,13.35
2019-03-28T12:06:08.230Z,13.54
2019-03-28T12:08:36.659Z,13.18
2019-03-28T12:11:05.092Z,12.79
2019-03-28T12:13:44.156Z,13.09
2019-03-28T12:16:04.259Z,13.07
2019-03-28T12:18:32.701Z,13.08
2019-03-28T12:21:01.299Z,12.73
2019-03-28T12:23:31.393Z,13.17
2019-03-28T12:25:59.878Z,12.78
2019-03-28T12:28:28.311Z,12.96
2019-03-28T12:30:56.758Z,12.83
2019-03-28T12:33:25.248Z,12.59
2019-03-28T12:35:53.670Z,12.93
2019-03-28T12:38:22.115Z,12.74
2019-03-28T12:40:50.955Z,12.68
2019-03-28T12:43:19.431Z,12.66
2019-03-28T12:45:47.847Z,12.62
2019-03-28T12:48:16.292Z,12.60
2019-03-28T12:50:58.022Z,12.42
2019-03-28T12:53:14.898Z,12.57
2019-03-28T12:55:43.329Z,12.51
2019-03-28T12:58:11.788Z,12.35
2019-03-28T13:00:40.226Z,11.94
2019-03-28T13:03:08.850Z,11.92
2019-03-28T13:05:37.425Z,12.02
2019-03-28T13:08:06.000Z,11.82
2019-03-28T13:10:34.605Z,11.91
2019-03-28T13:13:03.942Z,12.23
2019-03-28T13:15:32.643Z,12.23
2019-03-28T13:18:01.055Z,12.54
2019-03-28T13:20:29.624Z,12.81
2019-03-28T13:22:58.053Z,12.80
2019-03-28T13:25:26.479Z,13.09
2019-03-28T13:27:54.954Z,12.50
2019-03-28T13:30:23.903Z,12.44
2019-03-28T13:32:52.317Z,12.48
2019-03-28T13:35:20.784Z,12.09
2019-03-28T13:37:49.209Z,12.68
2019-03-28T13:40:17.775Z,12.58
2019-03-28T13:42:46.299Z,12.27
2019-03-28T13:45:16.627Z,12.19
2019-03-28T13:47:45.087Z,11.99
2019-03-28T13:50:14.492Z,12.51
2019-03-28T13:52:43.021Z,12.72
2019-03-28T13:55:11.517Z,12.56
2019-03-28T13:57:43.121Z,12.82
2019-03-28T14:00:11.540Z,12.31
2019-03-28T14:02:54.333Z,12.36
2019-03-28T14:05:13.060Z,12.30
2019-03-28T14:07:41.315Z,12.62
2019-03-28T14:10:10.215Z,12.39
2019-03-28T14:12:38.624Z,12.47
2019-03-28T14:15:07.710Z,12.80
2019-03-28T14:17:36.603Z,12.03
2019-03-28T14:20:08.798Z,12.50
2019-03-28T14:22:37.358Z,11.98
2019-03-28T14:25:06.904Z,12.25
2019-03-28T14:27:35.391Z,12.40
2019-03-28T14:30:05.378Z,12.64
2019-03-28T14:32:33.893Z,12.52
2019-03-28T14:35:02.341Z,12.83
2019-03-28T14:37:30.833Z,12.47
2019-03-28T14:39:59.336Z,12.45
2019-03-28T14:42:27.809Z,12.50
2019-03-28T14:44:56.291Z,11.97
2019-03-28T14:47:24.856Z,12.22
2019-03-28T14:49:53.513Z,12.53
2019-03-28T14:52:21.964Z,12.43
2019-03-28T14:54:50.377Z,12.63
2019-03-28T14:57:19.746Z,12.30
2019-03-28T14:59:49.780Z,12.46
2019-03-28T15:02:18.223Z,12.16
2019-03-28T15:04:46.755Z,12.04
2019-03-28T15:07:15.244Z,12.32
2019-03-28T15:09:43.673Z,12.31
2019-03-28T15:12:12.205Z,12.34
2019-03-28T15:14:40.728Z,12.08
2019-03-28T15:17:09.318Z,12.29
2019-03-28T15:19:37.774Z,12.59
2019-03-28T15:22:06.213Z,12.30
2019-03-28T15:24:35.541Z,12.10
2019-03-28T15:27:04.324Z,12.34
2019-03-28T15:29:32.828Z,12.22
2019-03-28T15:32:01.528Z,12.20
2019-03-28T15:34:29.935Z,12.14
2019-03-28T15:36:58.490Z,12.26
2019-03-28T15:39:26.919Z,11.83
2019-03-28T15:41:55.446Z,11.50
2019-03-28T15:44:23.876Z,11.77
2019-03-28T15:46:52.431Z,11.81
2019-03-28T15:49:20.871Z,11.36
2019-03-28T15:51:49.294Z,11.41
2019-03-28T15:54:17.746Z,11.58
2019-03-28T15:56:46.232Z,11.56
2019-03-28T15:59:14.688Z,11.55
2019-03-28T16:01:43.248Z,11.57
2019-03-28T16:04:11.801Z,11.56
2019-03-28T16:06:41.426Z,11.36
2019-03-28T16:09:10.089Z,11.36
2019-03-28T16:11:38.603Z,11.44
2019-03-28T16:14:07.011Z,11.64
2019-03-28T16:16:35.531Z,11.57
2019-03-28T16:19:04.025Z,11.52
2019-03-28T16:21:32.544Z,11.23
2019-03-28T16:24:00.960Z,11.11
2019-03-28T16:26:29.379Z,11.18
2019-03-28T16:28:57.912Z,10.90
2019-03-28T16:31:26.360Z,10.85
2019-03-28T16:34:06.308Z,10.86
2019-03-28T16:36:25.127Z,10.60
2019-03-28T16:38:53.625Z,10.78
2019-03-28T16:41:22.077Z,10.69
2019-03-28T16:43:50.621Z,10.86
2019-03-28T16:46:19.104Z,10.81
2019-03-28T16:48:47.524Z,10.85
2019-03-28T16:51:17.655Z,10.89
2019-03-28T16:53:46.257Z,10.92
2019-03-28T16:56:14.876Z,10.87
2019-03-28T16:58:43.306Z,10.79
2019-03-28T17:01:11.801Z,10.63
2019-03-28T17:03:40.342Z,10.66
2019-03-28T17:06:09.161Z,10.70
2019-03-28T17:08:37.721Z,10.75
2019-03-28T17:11:06.215Z,10.98
2019-03-28T17:13:34.765Z,10.62
2019-03-28T17:16:03.422Z,10.44
2019-03-28T17:18:31.853Z,10.53
2019-03-28T17:21:00.399Z,10.56
2019-03-28T17:23:28.842Z,10.49
2019-03-28T17:25:57.476Z,10.53
2019-03-28T17:28:26.063Z,10.47
2019-03-28T17:30:54.509Z,10.41
2019-03-28T17:33:23.484Z,10.38
2019-03-28T17:35:51.990Z,10.32
2019-03-28T17:38:20.490Z,10.33
2019-03-28T17:40:49.049Z,10.39
2019-03-28T17:43:17.448Z,10.42
2019-03-28T17:45:45.978Z,10.28
2019-03-28T17:48:14.579Z,10.17
2019-03-28T17:50:43.763Z,10.31
2019-03-28T17:53:13.015Z,10.26
2019-03-28T17:55:41.502Z,10.17
2019-03-28T17:58:10.057Z,10.22
2019-03-28T18:00:39.033Z,10.04
2019-03-28T18:03:09.491Z,10.11
2019-03-28T18:05:40.508Z,10.17
2019-03-28T18:08:08.267Z,10.04
2019-03-28T18:10:36.838Z,10.01
2019-03-28T18:13:05.653Z,10.06
2019-03-28T18:15:34.413Z,10.04
2019-03-28T18:18:02.828Z,10.01
2019-03-28T18:20:31.499Z,10.03
2019-03-28T18:22:59.928Z,9.96
2019-03-28T18:25:30.348Z,9.91
2019-03-28T18:27:58.710Z,9.88
2019-03-28T18:30:27.397Z,9.84
2019-03-28T18:32:55.835Z,9.89
2019-03-28T18:35:24.716Z,9.82
2019-03-28T18:37:53.211Z,9.95
2019-03-28T18:40:21.659Z,9.97
2019-03-28T18:42:50.165Z,9.77
2019-03-28T18:45:18.727Z,9.70
2019-03-28T18:47:47.257Z,9.78
2019-03-28T18:50:16.229Z,9.70
2019-03-28T18:52:44.730Z,9.80
2019-03-28T18:55:13.528Z,9.81
2019-03-28T18:57:41.982Z,9.83
2019-03-28T19:00:11.101Z,9.78
2019-03-28T19:02:39.595Z,9.68
2019-03-28T19:05:19.026Z,9.51
2019-03-28T19:07:38.778Z,9.61
2019-03-28T19:10:08.321Z,9.59
2019-03-28T19:12:36.867Z,9.35
2019-03-28T19:15:07.155Z,9.22
2019-03-28T19:17:35.967Z,9.25
2019-03-28T19:20:07.615Z,9.27
2019-03-28T19:22:36.681Z,9.23
2019-03-28T19:25:08.861Z,9.18
2019-03-28T19:27:38.346Z,9.12
2019-03-28T19:30:07.604Z,9.03
2019-03-28T19:32:36.116Z,8.95
2019-03-28T19:35:07.049Z,8.99
2019-03-28T19:37:37.335Z,8.83
2019-03-28T19:40:08.828Z,8.98
2019-03-28T19:42:37.709Z,8.89
2019-03-28T19:45:06.976Z,8.82
2019-03-28T19:47:35.428Z,8.80
2019-03-28T19:50:08.355Z,8.46
2019-03-28T19:52:37.043Z,8.45
2019-03-28T19:55:06.795Z,8.39
2019-03-28T19:57:35.283Z,8.32
2019-03-28T20:00:05.719Z,8.17
2019-03-28T20:02:34.270Z,8.09
2019-03-28T20:05:02.948Z,8.04
2019-03-28T20:07:31.389Z,7.92
2019-03-28T20:09:59.838Z,8.00
2019-03-28T20:12:28.293Z,7.85
2019-03-28T20:14:59.953Z,7.98
2019-03-28T20:17:26.971Z,7.86
2019-03-28T20:19:55.487Z,7.72
2019-03-28T20:22:24.072Z,7.71
2019-03-28T20:24:52.581Z,7.62
2019-03-28T20:27:21.016Z,7.52
2019-03-28T20:29:49.491Z,7.48
2019-03-28T20:32:18.087Z,7.41
2019-03-28T20:34:49.110Z,7.30
2019-03-28T20:37:16.778Z,7.42
2019-03-28T20:39:45.365Z,7.44
2019-03-28T20:42:13.819Z,7.32
2019-03-28T20:44:42.276Z,7.37
2019-03-28T20:47:10.803Z,7.23
2019-03-28T20:49:39.234Z,7.33
2019-03-28T20:52:09.450Z,7.22
2019-03-28T20:54:37.871Z,7.23
2019-03-28T20:57:06.375Z,7.21
2019-03-28T20:59:34.871Z,6.99
2019-03-28T21:02:03.416Z,7.04
2019-03-28T21:04:32.191Z,7.01
2019-03-28T21:07:00.735Z,6.93
2019-03-28T21:09:29.291Z,6.68
2019-03-28T21:11:57.804Z,6.66
2019-03-28T21:14:26.228Z,6.75
2019-03-28T21:16:57.923Z,6.76
2019-03-28T21:19:24.981Z,6.57
2019-03-28T21:21:54.207Z,6.49
2019-03-28T21:24:23.408Z,6.38
2019-03-28T21:26:51.958Z,6.32
2019-03-28T21:29:20.447Z,6.40
2019-03-28T21:31:50.303Z,6.21
2019-03-28T21:34:19.145Z,6.24
2019-03-28T21:36:47.641Z,6.20
2019-03-28T21:39:16.171Z,6.38
2019-03-28T21:41:45.964Z,6.37
2019-03-28T21:44:14.663Z,6.30
2019-03-28T21:46:43.091Z,6.16
2019-03-28T21:49:11.630Z,6.20
2019-03-28T21:51:40.137Z,6.20
2019-03-28T21:54:08.570Z,6.28
2019-03-28T21:56:37.027Z,6.26
2019-03-28T21:59:05.536Z,6.12
2019-03-28T22:01:34.118Z,6.05
2019-03-28T22:04:02.574Z,5.84
2019-03-28T22:06:42.335Z,5.86
2019-03-28T22:09:01.615Z,5.93
2019-03-28T22:11:30.112Z,5.76
2019-03-28T22:13:58.616Z,5.80
2019-03-28T22:16:27.077Z,5.80
2019-03-28T22:18:55.496Z,5.62
2019-03-28T22:21:27.236Z,5.61
2019-03-28T22:23:54.153Z,5.84
2019-03-28T22:26:22.811Z,5.80
2019-03-28T22:28:51.226Z,5.63
2019-03-28T22:31:19.797Z,5.67
2019-03-28T22:33:48.266Z,5.99
2019-03-28T22:36:17.902Z,5.90
2019-03-28T22:38:46.849Z,5.91
2019-03-28T22:41:15.475Z,5.97
2019-03-28T22:43:43.924Z,6.01
2019-03-28T22:46:12.337Z,6.08
2019-03-28T22:48:40.780Z,6.23
2019-03-28T22:51:09.346Z,6.47
2019-03-28T22:53:37.908Z,6.62
2019-03-28T22:56:06.534Z,6.65
2019-03-28T22:58:35.037Z,6.57
2019-03-28T23:01:04.475Z,6.60
2019-03-28T23:03:32.981Z,6.56
2019-03-28T23:06:01.483Z,6.73
2019-03-28T23:08:30.012Z,6.88
2019-03-28T23:10:58.506Z,6.99
2019-03-28T23:13:27.160Z,6.94
2019-03-28T23:15:55.636Z,6.82
2019-03-28T23:18:24.135Z,6.69
2019-03-28T23:20:52.678Z,6.39
2019-03-28T23:23:21.173Z,6.26
2019-03-28T23:25:49.608Z,6.26
2019-03-28T23:28:18.855Z,6.19
2019-03-28T23:31:51.363Z,6.33
2019-03-28T23:34:19.900Z,6.21
2019-03-28T23:36:48.327Z,6.00
2019-03-28T23:39:16.789Z,6.02
2019-03-28T23:41:45.242Z,5.97
2019-03-28T23:44:13.662Z,5.99
2019-03-28T23:46:42.366Z,6.07
2019-03-28T23:49:10.775Z,6.05
2019-03-28T23:51:39.193Z,6.16
2019-03-28T23:54:07.689Z,6.40
2019-03-28T23:56:36.919Z,6.56
2019-03-28T23:59:05.492Z,6.66
